MST,Max TemperatureF,Mean TemperatureF,Min TemperatureF,Max Dew PointF,MeanDew PointF,Min DewpointF,Max Humidity, Mean Humidity, Min Humidity, Max Sea Level PressureIn, Mean Sea Level PressureIn, Min Sea Level PressureIn, Max VisibilityMiles, Mean VisibilityMiles, Min VisibilityMiles, Max Wind SpeedMPH, Mean Wind SpeedMPH, Max Gust SpeedMPH,PrecipitationIn, CloudCover, Events, WindDirDegrees
2012-12-1,71,56,40,22,14,5,37,23,9,30.10,30.01,29.94,10,10,9,12,5,14,0.00,0,,193
2012-12-2,70,54,37,20,12,8,27,19,11,30.09,29.99,29.88,10,10,10,13,5,17,0.00,0,,255
2012-12-3,69,55,40,28,20,9,38,28,17,30.04,29.97,29.91,10,10,10,15,6,21,0.00,0,,293
2012-12-4,63,51,39,30,24,19,59,40,20,30.27,30.21,30.06,10,10,10,15,7,18,0.00,0,,350
2012-12-5,64,50,36,24,21,18,44,33,21,30.25,30.10,29.96,10,10,10,13,5,16,0.00,0,,282
2012-12-6,67,52,36,24,19,16,44,32,19,29.94,29.85,29.75,10,10,10,9,5,10,0.00,0,,276
2012-12-7,68,55,42,27,21,16,34,27,20,29.88,29.79,29.71,10,10,10,13,6,16,0.00,0,,272
2012-12-8,65,52,38,25,21,15,50,33,15,29.88,29.80,29.70,10,10,10,14,7,17,0.00,0,,252
2012-12-9,66,48,30,23,16,8,59,36,13,30.14,29.87,29.66,10,10,9,31,10,39,0.00,2,,305
2012-12-10,47,35,23,8,0,-4,46,30,13,30.17,30.07,29.98,10,10,10,15,5,23,0.00,0,,355
2012-12-11,50,39,27,10,7,1,42,30,18,30.09,30.05,29.98,10,10,10,15,6,21,0.00,0,,8
2012-12-12,56,38,20,12,6,1,45,31,16,30.17,30.08,29.99,10,10,10,14,6,17,0.00,0,,286
2012-12-13,60,43,26,26,14,4,42,31,20,30.11,29.99,29.82,10,10,8,20,6,24,0.00,1,,336
2012-12-14,49,42,34,41,33,24,93,66,39,29.96,29.77,29.65,10,8,2,31,10,40,0.51,6,Rain,228
2012-12-15,53,41,28,33,28,25,92,65,38,29.97,29.89,29.80,10,10,10,17,7,22,0.00,2,,212
2012-12-16,53,44,36,35,29,23,89,60,26,30.03,29.89,29.79,10,10,10,22,8,28,0.00,4,,311
2012-12-17,52,40,28,29,25,22,75,59,28,30.08,29.99,29.92,10,10,10,8,4,,0.00,0,,253
2012-12-18,57,42,27,32,28,21,81,58,35,29.93,29.80,29.63,10,10,10,20,6,25,0.00,0,,92
2012-12-19,50,38,26,32,15,6,58,39,19,30.28,29.81,29.51,10,9,2,41,19,52,0.00,1,,274
2012-12-20,43,32,20,7,5,1,52,35,18,30.52,30.42,30.29,10,10,10,16,6,23,0.00,0,,353
2012-12-21,49,35,20,6,3,-3,45,29,12,30.42,30.30,30.19,10,10,10,9,5,12,0.00,0,,349
2012-12-22,50,39,28,13,10,6,47,33,19,30.26,30.15,30.07,10,10,10,8,2,9,0.00,0,,360
2012-12-23,58,43,27,22,17,12,58,41,24,30.15,30.05,29.97,10,10,10,10,4,13,0.00,0,,354
2012-12-24,57,44,32,35,23,18,61,43,24,29.94,29.80,29.62,10,10,4,12,5,14,0.00,1,Snow,275
2012-12-25,45,39,33,23,15,9,57,39,17,30.07,29.95,29.70,10,10,10,36,17,53,0.00,0,,315
2012-12-26,50,38,26,19,17,16,66,44,19,30.02,29.88,29.75,10,10,10,15,5,20,0.00,0,,218
2012-12-27,50,38,26,22,16,5,63,39,15,29.87,29.75,29.62,10,10,10,24,6,30,0.00,0,,271
2012-12-28,45,34,23,20,15,12,68,48,27,30.21,30.04,29.88,10,10,10,16,6,22,0.00,0,,328
2012-12-29,43,31,18,12,10,7,67,48,29,30.32,30.21,30.10,10,10,10,12,5,15,0.00,0,,317
2012-12-30,44,36,27,30,16,11,64,47,30,30.06,29.93,29.80,10,10,10,14,4,18,0.01,4,,322
2012-12-31,46,37,32,34,23,14,92,60,28,30.06,29.91,29.78,10,10,10,24,11,28,0.00,2,,223